Time;durP1;ratioP1;P1;durP2;ratioP2;P2;SDS_P1;SDS_P2;PMS_P1;PMS_P2;Temp;Humidity;BMP_temperature;BMP_pressure;BME280_temperature;BME280_humidity;BME280_pressure;Samples;Min_cycle;Max_cycle;Signal;HPM_P1;HPM_P2
2021/09/26 00:01:06;;;;;;;0.50;0.50;;;21.80;50.40;;;25.68;33.87;101438.13;5114919;28;20047;-11
2021/09/26 00:03:32;;;;;;;0.47;0.47;;;21.80;50.50;;;25.70;33.79;101438.03;5114715;28;20048;-11
2021/09/26 00:05:58;;;;;;;0.52;0.52;;;21.80;50.50;;;25.70;33.87;101435.34;5114805;28;20054;-11
2021/09/26 00:08:23;;;;;;;0.50;0.50;;;21.80;50.60;;;25.71;33.78;101442.41;5114944;28;20051;-11
2021/09/26 00:10:49;;;;;;;0.60;0.60;;;21.70;50.60;;;25.69;33.84;101441.66;5096426;28;20047;-11
2021/09/26 00:13:15;;;;;;;0.50;0.50;;;21.80;50.80;;;25.68;33.84;101438.13;5114926;28;20047;-11
2021/09/26 00:15:41;;;;;;;0.52;0.52;;;21.70;50.70;;;25.69;33.84;101439.84;5114630;28;20064;-11
2021/09/26 00:18:06;;;;;;;0.55;0.55;;;21.80;50.60;;;25.70;33.90;101435.34;5114471;28;20391;-11
2021/09/26 00:20:32;;;;;;;0.60;0.60;;;21.80;50.50;;;25.72;33.79;101448.63;5114325;28;20052;-11
2021/09/26 00:22:58;;;;;;;0.50;0.50;;;21.80;50.50;;;25.72;33.78;101445.94;5114475;28;20073;-11
2021/09/26 00:25:24;;;;;;;0.50;0.43;;;21.80;50.40;;;25.72;33.79;101452.16;5114631;28;20387;-11
2021/09/26 00:27:50;;;;;;;0.60;0.60;;;21.90;50.40;;;25.70;33.80;101446.06;5114515;28;20044;-11
2021/09/26 00:30:16;;;;;;;0.50;0.50;;;21.80;50.40;;;25.67;33.68;101440.91;5114386;28;20433;-11
2021/09/26 00:32:44;;;;;;;0.60;0.60;;;21.80;50.30;;;25.71;33.78;101447.78;5114450;28;20403;-11
2021/09/26 00:35:11;;;;;;;0.50;0.50;;;21.90;50.40;;;25.68;33.86;101442.63;5114391;28;20054;-11
2021/09/26 00:37:37;;;;;;;0.40;0.40;;;21.90;50.40;;;25.72;33.96;101441.44;5114208;28;20491;-11
2021/09/26 00:40:06;;;;;;;0.52;0.52;;;21.90;50.40;;;25.70;33.83;101440.69;5114115;28;20052;-11
2021/09/26 00:42:32;;;;;;;0.50;0.50;;;21.90;50.40;;;25.68;33.94;101440.81;5114134;28;20048;-11
2021/09/26 00:44:58;;;;;;;0.50;0.50;;;21.80;50.40;;;25.68;33.86;101442.63;5114798;28;20047;-11
2021/09/26 00:47:25;;;;;;;0.50;0.50;;;21.80;50.50;;;25.70;33.78;101440.69;5114214;28;20411;-11
2021/09/26 00:49:52;;;;;;;0.50;0.50;;;21.80;50.50;;;25.70;33.78;101433.50;5113936;28;20075;-11
2021/09/26 00:52:20;;;;;;;0.50;0.50;;;21.80;50.40;;;25.66;33.93;101432.03;5114024;28;20051;-11
2021/09/26 00:54:47;;;;;;;0.50;0.50;;;21.80;50.40;;;25.70;33.82;101441.53;5114363;28;20380;-11
2021/09/26 00:57:14;;;;;;;0.40;0.40;;;21.80;50.50;;;25.69;33.83;101433.63;5114074;28;20105;-11
2021/09/26 00:59:40;;;;;;;0.50;0.50;;;21.80;50.50;;;25.70;33.78;101438.03;5113770;28;20052;-11
2021/09/26 01:02:06;;;;;;;0.50;0.50;;;21.80;50.60;;;25.67;33.91;101436.41;5113900;28;20487;-11
2021/09/26 01:04:32;;;;;;;0.50;0.50;;;21.80;50.50;;;25.66;33.78;101433.84;5114405;28;20039;-11
2021/09/26 01:07:32;;;;;;;0.50;0.50;;;21.80;50.50;;;25.69;33.96;101430.94;5113863;28;20048;-11
2021/09/26 01:10:09;;;;;;;0.50;0.50;;;21.80;50.50;;;25.68;33.84;101438.13;5110149;28;20403;-11
2021/09/26 01:13:08;;;;;;;0.50;0.50;;;21.80;50.40;;;25.71;33.86;101437.06;5095524;28;20071;-11
2021/09/26 01:16:26;;;;;;;0.40;0.40;;;21.90;50.50;;;25.71;33.63;101434.38;5113727;28;20445;-11
2021/09/26 01:19:23;;;;;;;0.82;0.60;;;21.80;50.50;;;25.68;33.76;101438.13;5055301;28;20044;-11
2021/09/26 01:22:00;;;;;;;0.50;0.50;;;21.80;50.40;;;25.68;33.84;101431.94;5113446;28;20085;-11
2021/09/26 01:25:33;;;;;;;0.40;0.40;;;21.80;50.50;;;25.68;33.89;101426.56;5113663;28;20051;-11
2021/09/26 01:29:06;;;;;;;0.60;0.60;;;21.80;50.60;;;25.72;33.70;101436.06;5030928;28;20470;-11
2021/09/26 01:31:37;;;;;;;0.47;0.47;;;21.70;50.60;;;25.66;33.81;101439.19;5030720;28;20049;-11
2021/09/26 01:34:28;;;;;;;0.57;0.57;;;21.70;50.60;;;25.66;33.96;101441.88;5014244;28;20076;-12
2021/09/26 01:37:46;;;;;;;0.40;0.40;;;21.80;50.70;;;25.68;33.79;101435.44;5030018;28;20053;-11
2021/09/26 01:40:30;;;;;;;0.50;0.50;;;21.80;50.70;;;25.64;34.06;101436.66;5056352;28;20051;-11
2021/09/26 01:43:00;;;;;;;0.50;0.50;;;21.80;50.60;;;25.64;33.84;101427.75;5113291;28;20541;-11
2021/09/26 01:45:36;;;;;;;0.60;0.60;;;21.80;50.60;;;25.66;33.83;101431.16;5095418;28;20408;-11
2021/09/26 01:48:14;;;;;;;0.50;0.50;;;21.80;50.60;;;25.66;33.93;101433.84;5113244;28;20139;-11
2021/09/26 01:50:40;;;;;;;0.60;0.60;;;21.70;50.70;;;25.64;33.92;101431.31;5094970;28;20111;-11
2021/09/26 01:53:09;;;;;;;0.60;0.60;;;21.70;50.70;;;25.62;33.80;101422.50;5095004;28;20043;-11
2021/09/26 01:55:35;;;;;;;0.40;0.40;;;21.70;50.60;;;25.65;33.83;101434.81;5094983;28;20048;-11
2021/09/26 01:58:02;;;;;;;0.70;0.70;;;21.70;50.70;;;25.66;33.90;101436.50;5092523;28;20055;-11
2021/09/26 02:00:29;;;;;;;0.50;0.50;;;21.70;50.80;;;25.63;33.92;101426.91;5077251;28;20056;-11
2021/09/26 02:02:55;;;;;;;0.45;0.45;;;21.80;50.80;;;25.62;33.99;101429.69;5113532;28;20059;-11
2021/09/26 02:05:22;;;;;;;0.50;0.50;;;21.80;50.70;;;25.62;34.08;101425.19;5094837;28;20109;-11
2021/09/26 02:07:51;;;;;;;0.63;0.63;;;21.80;50.60;;;25.62;33.96;101424.34;5094519;28;20059;-11
2021/09/26 02:10:22;;;;;;;0.50;0.50;;;21.80;50.60;;;25.65;33.95;101427.63;5094721;28;20054;-11
2021/09/26 02:12:48;;;;;;;0.60;0.60;;;21.80;50.60;;;25.64;33.91;101423.25;5113265;28;20047;-11
2021/09/26 02:15:19;;;;;;;0.40;0.40;;;21.70;50.70;;;25.65;33.91;101426.78;5093945;28;20373;-11
2021/09/26 02:17:48;;;;;;;0.60;0.60;;;21.70;50.70;;;25.65;33.91;101422.28;5112698;28;20731;-11
2021/09/26 02:20:19;;;;;;;0.50;0.50;;;21.80;50.70;;;25.65;33.92;101426.78;5112599;28;20043;-11
2021/09/26 02:22:48;;;;;;;0.50;0.50;;;21.70;50.60;;;25.62;33.95;101427.84;5112846;28;20088;-11
2021/09/26 02:25:17;;;;;;;0.60;0.60;;;21.70;50.70;;;25.65;33.97;101429.47;5094906;28;20047;-11
2021/09/26 02:27:43;;;;;;;0.57;0.57;;;21.80;50.60;;;25.65;33.99;101426.78;5094379;28;20126;-11
2021/09/26 02:30:10;;;;;;;0.40;0.40;;;21.80;50.60;;;25.64;34.07;101419.72;5112719;28;20480;-11
2021/09/26 02:32:36;;;;;;;0.50;0.50;;;21.80;50.50;;;25.64;33.90;101417.03;5109375;28;20052;-11
2021/09/26 02:35:05;;;;;;;0.57;0.57;;;21.80;50.60;;;25.64;34.01;101415.22;5113018;28;20055;-11
2021/09/26 02:37:31;;;;;;;0.65;0.65;;;21.70;50.70;;;25.65;33.86;101427.63;5112599;28;20392;-11
2021/09/26 02:40:00;;;;;;;0.55;0.55;;;21.70;50.80;;;25.63;33.97;101421.53;5112543;28;20131;-11
2021/09/26 02:42:42;;;;;;;0.50;0.50;;;21.70;50.80;;;25.65;34.03;101426.78;5112529;28;20046;-11
2021/09/26 02:45:33;;;;;;;0.68;0.50;;;21.70;50.80;;;25.65;33.97;101419.59;5092559;28;20048;-11
2021/09/26 02:48:12;;;;;;;0.57;0.57;;;21.80;50.80;;;25.64;33.96;101412.56;5112162;28;20051;-11
2021/09/26 02:50:40;;;;;;;0.70;0.70;;;21.70;50.70;;;25.64;34.05;101411.69;5097363;28;20047;-11
2021/09/26 02:53:07;;;;;;;0.50;0.50;;;21.70;50.70;;;25.65;34.04;101421.44;5116006;28;20134;-11
2021/09/26 02:55:34;;;;;;;0.50;0.50;;;21.70;50.70;;;25.61;33.99;101407.41;5115973;28;20059;-11
2021/09/26 02:58:01;;;;;;;0.50;0.50;;;21.70;50.80;;;25.64;33.96;101411.69;5097891;28;20048;-11
2021/09/26 03:00:37;;;;;;;0.47;0.47;;;21.70;50.70;;;25.63;33.89;101410.81;5115674;28;20048;-11
2021/09/26 03:03:11;;;;;;;0.60;0.60;;;21.70;50.70;;;25.60;33.87;101407.53;5096878;28;20044;-11
2021/09/26 03:05:38;;;;;;;0.47;0.47;;;21.70;50.70;;;25.64;34.02;101411.69;5115866;28;20561;-11
2021/09/26 03:08:05;;;;;;;0.60;0.60;;;21.70;51.20;;;25.64;33.92;101414.34;5097480;28;20047;-11
2021/09/26 03:10:31;;;;;;;0.70;0.70;;;21.70;50.70;;;25.64;33.89;101406.31;5115562;28;20043;-11
2021/09/26 03:12:57;;;;;;;0.50;0.50;;;21.70;51.30;;;25.64;33.97;101406.31;5115800;28;20399;-11
2021/09/26 03:15:23;;;;;;;0.55;0.55;;;21.70;50.80;;;25.64;33.87;101401.84;5115684;28;20058;-11
2021/09/26 03:17:49;;;;;;;0.65;0.65;;;21.70;50.70;;;25.64;33.81;101395.59;5116019;28;20043;-11
2021/09/26 03:20:15;;;;;;;0.50;0.50;;;21.70;50.80;;;25.66;33.91;101402.56;5115557;28;20418;-11
2021/09/26 03:22:41;;;;;;;0.50;0.50;;;21.70;50.80;;;25.65;33.83;101406.22;5115496;28;20048;-11
2021/09/26 03:25:07;;;;;;;0.60;0.60;;;21.70;50.80;;;25.63;33.94;101394.75;5115796;28;20039;-11
2021/09/26 03:27:33;;;;;;;0.40;0.40;;;21.70;50.80;;;25.64;33.91;101400.97;5115632;28;20047;-11
2021/09/26 03:29:59;;;;;;;0.50;0.50;;;21.70;50.80;;;25.64;33.92;101390.25;5115387;28;20376;-11
2021/09/26 03:32:25;;;;;;;0.45;0.45;;;21.70;50.70;;;25.65;33.79;101400.00;5115399;28;20103;-11
2021/09/26 03:34:50;;;;;;;0.43;0.43;;;21.70;50.70;;;25.62;33.95;101393.03;5115332;28;20138;-11
2021/09/26 03:37:16;;;;;;;0.63;0.63;;;21.70;50.80;;;25.65;33.95;101400.00;5115569;28;20039;-11
2021/09/26 03:39:42;;;;;;;0.50;0.50;;;21.70;50.70;;;25.64;34.02;101398.28;5115181;28;20079;-11
2021/09/26 03:42:08;;;;;;;0.40;0.40;;;21.70;50.80;;;25.63;33.98;101397.44;5115266;28;20046;-11
2021/09/26 03:44:34;;;;;;;0.40;0.40;;;21.70;50.80;;;25.64;34.01;101392.94;5115595;28;20043;-11
2021/09/26 03:47:00;;;;;;;0.57;0.57;;;21.70;50.80;;;25.64;33.97;101395.59;5115347;28;20052;-11
2021/09/26 03:49:26;;;;;;;0.60;0.60;;;21.70;50.80;;;25.62;33.99;101393.03;5115011;28;20058;-11
2021/09/26 03:51:52;;;;;;;0.65;0.65;;;21.60;50.80;;;25.64;33.73;101393.81;5115327;28;20476;-11
2021/09/26 03:54:20;;;;;;;0.50;0.50;;;21.60;50.80;;;25.63;33.98;101385.88;5115350;28;20097;-11
2021/09/26 03:56:48;;;;;;;0.50;0.50;;;21.70;50.80;;;25.62;33.94;101382.31;5115286;28;20541;-11
2021/09/26 03:59:14;;;;;;;0.55;0.55;;;21.70;50.80;;;25.64;33.98;101385.78;5114425;28;20047;-11
2021/09/26 04:01:40;;;;;;;0.73;0.73;;;21.70;51.30;;;25.62;33.95;101382.31;5115133;28;20428;-11
2021/09/26 04:04:07;;;;;;;0.60;0.60;;;21.70;50.80;;;25.64;34.11;101379.53;5114817;28;20050;-11
2021/09/26 04:06:33;;;;;;;0.57;0.57;;;21.70;50.80;;;25.64;33.98;101385.78;5096745;28;20441;-11
2021/09/26 04:08:59;;;;;;;0.40;0.40;;;21.70;50.80;;;25.62;33.85;101382.31;5095581;28;20040;-11
2021/09/26 04:11:25;;;;;;;0.60;0.55;;;21.60;50.80;;;25.62;33.92;101374.28;5114602;28;20050;-11
2021/09/26 04:13:51;;;;;;;0.50;0.50;;;21.70;50.80;;;25.63;33.84;101373.34;5114611;28;20075;-11
2021/09/26 04:16:17;;;;;;;0.50;0.50;;;21.60;50.80;;;25.64;34.04;101374.19;5114684;28;20040;-11
2021/09/26 04:18:43;;;;;;;0.50;0.50;;;21.70;50.80;;;25.63;33.96;101369.81;5114423;28;20051;-11
2021/09/26 04:21:09;;;;;;;0.63;0.60;;;21.60;50.80;;;25.63;34.01;101373.34;5114472;28;20058;-11
2021/09/26 04:23:35;;;;;;;0.55;0.55;;;21.60;50.80;;;25.62;33.94;101368.09;5114575;28;20502;-11
2021/09/26 04:26:02;;;;;;;0.57;0.57;;;21.60;50.80;;;25.63;33.81;101372.50;5114999;28;20195;-11
2021/09/26 04:28:27;;;;;;;0.57;0.57;;;21.70;50.90;;;25.63;34.01;101367.13;5114527;28;20043;-11
2021/09/26 04:30:53;;;;;;;0.50;0.50;;;21.70;50.90;;;25.63;33.97;101365.31;5114362;28;20376;-11
2021/09/26 04:33:19;;;;;;;0.68;0.68;;;21.70;50.80;;;25.60;33.95;101360.16;5114729;28;20098;-11
2021/09/26 04:35:45;;;;;;;0.57;0.57;;;21.70;50.80;;;25.62;34.05;101366.25;5114387;28;20052;-11
2021/09/26 04:38:10;;;;;;;0.50;0.50;;;21.70;50.80;;;25.64;34.00;101366.16;5114366;28;20047;-11
2021/09/26 04:40:39;;;;;;;0.50;0.50;;;21.70;50.80;;;25.62;33.96;101366.25;5114519;28;20444;-11
2021/09/26 04:43:05;;;;;;;0.43;0.43;;;21.70;50.80;;;25.64;34.11;101368.81;5114169;28;20445;-11
2021/09/26 04:45:31;;;;;;;0.40;0.40;;;21.70;50.80;;;25.62;34.00;101365.41;5096017;28;20059;-11
2021/09/26 04:47:57;;;;;;;0.75;0.75;;;21.70;50.80;;;25.63;34.09;101362.63;5114239;28;20048;-11
2021/09/26 04:50:23;;;;;;;0.40;0.40;;;21.70;50.90;;;25.62;34.06;101363.59;5113825;28;20054;-11
2021/09/26 04:52:49;;;;;;;0.50;0.50;;;21.70;50.90;;;25.62;33.83;101366.25;5114338;28;20051;-11
2021/09/26 04:55:15;;;;;;;0.60;0.60;;;21.70;50.80;;;25.60;33.96;101362.84;5113854;28;20483;-11
2021/09/26 04:57:41;;;;;;;0.52;0.52;;;21.70;50.80;;;25.61;33.96;101361.91;5114300;28;20097;-11
2021/09/26 05:00:09;;;;;;;0.60;0.60;;;21.70;50.70;;;25.61;33.85;101364.56;5114076;28;20047;-11
2021/09/26 05:02:35;;;;;;;0.40;0.40;;;21.70;50.70;;;25.62;33.96;101366.25;5114192;28;20048;-11
2021/09/26 05:05:01;;;;;;;0.47;0.47;;;21.70;50.70;;;25.62;34.06;101365.41;5113931;28;20048;-11
2021/09/26 05:07:27;;;;;;;0.60;0.60;;;21.70;50.80;;;25.63;33.99;101367.13;5114163;28;20069;-11
2021/09/26 05:09:52;;;;;;;0.60;0.60;;;21.70;50.80;;;25.60;33.85;101365.53;5095443;28;20047;-11
2021/09/26 05:12:18;;;;;;;0.50;0.50;;;21.70;50.90;;;25.60;33.93;101360.16;5113057;28;20048;-11
2021/09/26 05:14:44;;;;;;;0.50;0.50;;;21.60;50.80;;;25.63;34.00;101372.50;5113564;28;20137;-11
2021/09/26 05:17:10;;;;;;;0.60;0.60;;;21.60;50.80;;;25.60;34.10;101364.69;5095474;28;20058;-11
2021/09/26 05:19:35;;;;;;;0.50;0.50;;;21.60;50.90;;;25.60;33.96;101367.34;5113453;28;20054;-11
2021/09/26 05:22:01;;;;;;;0.50;0.50;;;21.60;50.90;;;25.62;33.94;101366.25;5113838;28;20403;-11
2021/09/26 05:24:28;;;;;;;0.40;0.40;;;21.60;50.80;;;25.62;34.01;101360.06;5113473;28;20433;-11
2021/09/26 05:26:54;;;;;;;0.40;0.40;;;21.60;50.90;;;25.61;34.00;101361.91;5113564;28;20048;-11
2021/09/26 05:29:21;;;;;;;0.50;0.50;;;21.70;50.90;;;25.61;33.95;101361.00;5113506;28;20047;-11
2021/09/26 05:31:48;;;;;;;0.50;0.50;;;21.60;50.80;;;25.61;33.85;101361.00;5114126;28;20043;-11
2021/09/26 05:34:14;;;;;;;0.43;0.43;;;21.70;50.90;;;25.60;33.97;101367.34;5113405;28;20051;-11
2021/09/26 05:36:40;;;;;;;0.50;0.50;;;21.60;50.80;;;25.62;33.90;101368.94;5113177;28;20134;-11
2021/09/26 05:39:06;;;;;;;0.40;0.40;;;21.70;50.80;;;25.60;33.96;101364.69;5113126;28;20059;-11
2021/09/26 05:41:31;;;;;;;0.70;0.70;;;21.70;50.80;;;25.62;34.04;101371.63;5113231;28;20073;-12
2021/09/26 05:43:57;;;;;;;0.43;0.43;;;21.60;50.90;;;25.63;33.94;101376.00;5113458;28;20052;-11
2021/09/26 05:46:23;;;;;;;0.50;0.50;;;21.60;50.80;;;25.62;33.98;101371.63;5093542;28;20426;-11
2021/09/26 05:48:49;;;;;;;0.50;0.50;;;21.70;50.80;;;25.60;33.93;101362.84;5112988;28;20108;-11
2021/09/26 05:51:14;;;;;;;0.50;0.50;;;21.70;50.80;;;25.61;34.03;101369.94;5113227;28;20039;-11
2021/09/26 05:53:40;;;;;;;0.47;0.47;;;21.70;50.80;;;25.61;34.04;101369.94;5113706;28;20055;-11
2021/09/26 05:56:06;;;;;;;0.50;0.50;;;21.70;50.80;;;25.61;34.11;101372.59;5113423;28;20073;-11
2021/09/26 05:58:32;;;;;;;0.40;0.40;;;21.70;50.80;;;25.62;33.99;101366.25;5112935;28;20502;-11
2021/09/26 06:00:57;;;;;;;0.60;0.60;;;21.70;50.70;;;25.63;33.88;101373.34;5112995;28;20058;-11
2021/09/26 06:03:23;;;;;;;0.55;0.55;;;21.70;50.80;;;25.63;33.90;101372.50;5113043;28;20036;-11
2021/09/26 06:05:49;;;;;;;0.40;0.40;;;21.60;50.80;;;25.62;33.80;101368.94;5113201;28;20064;-11
2021/09/26 06:08:14;;;;;;;0.40;0.40;;;21.60;50.80;;;25.61;33.95;101364.56;5112914;28;20040;-11
2021/09/26 06:10:40;;;;;;;0.40;0.40;;;21.70;50.80;;;25.62;33.96;101363.59;5113579;28;20096;-11
2021/09/26 06:13:06;;;;;;;0.60;0.60;;;21.70;50.70;;;25.63;33.99;101361.78;5112823;28;20039;-11
2021/09/26 06:15:33;;;;;;;0.40;0.40;;;21.70;50.70;;;25.63;33.83;101369.81;5112931;28;20044;-11
2021/09/26 06:17:59;;;;;;;0.60;0.60;;;21.70;50.70;;;25.64;33.92;101367.03;5094628;28;20130;-11
2021/09/26 06:20:26;;;;;;;0.60;0.60;;;21.80;50.70;;;25.70;33.95;101373.75;5112597;28;20047;-11
2021/09/26 06:22:52;;;;;;;0.43;0.43;;;21.90;50.30;;;25.77;33.89;101371.47;5113787;28;20105;-11
2021/09/26 06:25:18;;;;;;;0.55;0.55;;;22.00;50.70;;;25.82;33.87;101367.47;5116474;28;20082;-11
2021/09/26 06:27:44;;;;;;;0.55;0.55;;;22.10;49.90;;;25.88;33.84;101372.38;5116995;28;20079;-11
2021/09/26 06:30:11;;;;;;;0.55;0.55;;;22.10;49.80;;;25.94;33.80;101370.19;5116378;28;20056;-11
2021/09/26 06:32:37;;;;;;;0.50;0.50;;;22.10;49.80;;;26.00;33.79;101365.25;5116220;28;20907;-11
2021/09/26 06:35:06;;;;;;;0.52;0.52;;;22.20;49.60;;;26.04;33.75;101368.56;5116591;28;20047;-11
2021/09/26 06:37:32;;;;;;;0.50;0.50;;;22.20;49.50;;;26.04;33.43;101365.88;5116858;28;20064;-11
2021/09/26 06:39:58;;;;;;;0.40;0.40;;;22.20;49.60;;;26.03;33.50;101358.81;5116188;28;20492;-11
2021/09/26 06:42:24;;;;;;;0.55;0.55;;;22.20;49.60;;;26.09;33.56;101370.91;5116223;28;20053;-11
2021/09/26 06:44:50;;;;;;;0.65;0.65;;;22.30;49.60;;;26.07;33.54;101369.16;5116176;28;20048;-11
2021/09/26 06:47:16;;;;;;;0.50;0.50;;;22.20;49.60;;;26.11;33.56;101368.94;5116154;28;20395;-11
2021/09/26 06:49:42;;;;;;;0.60;0.60;;;22.30;49.50;;;26.19;33.49;101371.91;5115948;28;20483;-11
2021/09/26 06:52:08;;;;;;;0.47;0.47;;;22.40;49.30;;;26.25;33.32;101377.63;5116051;28;20052;-11
2021/09/26 06:54:34;;;;;;;0.43;0.43;;;22.40;49.10;;;26.30;33.35;101377.31;5114962;28;20453;-11
2021/09/26 06:57:00;;;;;;;0.60;0.60;;;22.50;49.00;;;26.37;33.27;101377.69;5115930;28;20090;-11
2021/09/26 06:59:25;;;;;;;0.50;0.50;;;22.60;48.70;;;26.43;33.12;101377.22;5116027;28;20069;-11
2021/09/26 07:01:51;;;;;;;0.55;0.55;;;22.70;48.60;;;26.49;33.20;101373.19;5115781;28;20039;-11
2021/09/26 07:04:17;;;;;;;0.50;0.50;;;22.80;48.40;;;26.53;33.00;101367.47;5115807;28;20552;-11
2021/09/26 07:06:43;;;;;;;0.40;0.40;;;22.80;48.30;;;26.60;32.92;101375.91;5116358;28;20062;-11
2021/09/26 07:09:09;;;;;;;0.60;0.60;;;22.90;48.20;;;26.62;32.85;101368.59;5115565;28;20134;-11
2021/09/26 07:11:35;;;;;;;0.40;0.40;;;22.90;48.10;;;26.67;32.99;101366.41;5115885;28;20039;-11
2021/09/26 07:14:01;;;;;;;0.40;0.40;;;22.90;48.20;;;26.71;32.61;101373.25;5115552;28;20562;-11
2021/09/26 07:16:27;;;;;;;0.40;0.40;;;22.90;48.10;;;26.73;32.69;101374.00;5116083;28;20054;-11
2021/09/26 07:18:53;;;;;;;0.60;0.60;;;22.90;48.10;;;26.76;32.62;101376.44;5095879;28;20048;-11
2021/09/26 07:21:19;;;;;;;0.43;0.43;;;23.00;48.10;;;26.80;32.60;101372.53;5115576;28;20096;-11
2021/09/26 07:23:45;;;;;;;0.40;0.40;;;23.00;48.00;;;26.83;32.58;101373.25;5115781;28;20496;-11
2021/09/26 07:26:12;;;;;;;0.63;0.57;;;23.00;48.00;;;26.86;32.68;101386.44;5115581;28;20047;-11
2021/09/26 07:28:38;;;;;;;0.52;0.52;;;23.00;48.00;;;26.90;32.58;101382.56;5115459;28;20077;-11
2021/09/26 07:31:04;;;;;;;0.50;0.50;;;23.00;48.00;;;26.90;32.48;101374.50;5115856;28;20036;-11
2021/09/26 07:33:29;;;;;;;0.40;0.40;;;23.00;48.10;;;26.92;32.50;101373.38;5115367;28;20055;-11
2021/09/26 07:35:55;;;;;;;0.55;0.50;;;23.00;48.10;;;26.92;32.22;101368.03;5114481;28;20052;-12
2021/09/26 07:38:21;;;;;;;0.50;0.50;;;23.00;48.10;;;26.93;32.42;101375.09;5115210;28;20122;-11
2021/09/26 07:40:47;;;;;;;0.45;0.45;;;23.00;48.10;;;26.93;32.36;101364.38;5115571;28;20048;-11
2021/09/26 07:43:13;;;;;;;0.60;0.60;;;23.00;48.10;;;26.91;32.19;101358.25;5115176;28;20040;-11
2021/09/26 07:45:39;;;;;;;0.52;0.52;;;22.90;48.10;;;26.94;32.22;101367.91;5115524;28;20096;-11
2021/09/26 07:48:05;;;;;;;0.40;0.40;;;22.90;48.10;;;26.93;32.26;101363.50;5114990;28;20047;-11
2021/09/26 07:50:31;;;;;;;0.57;0.57;;;22.90;48.10;;;26.93;32.10;101366.19;5115051;28;20044;-11
2021/09/26 07:52:58;;;;;;;0.55;0.55;;;22.90;48.10;;;26.94;32.36;101371.44;5115125;28;20067;-11
2021/09/26 07:55:24;;;;;;;0.50;0.50;;;23.00;48.10;;;26.93;32.30;101367.06;5113226;28;20058;-11
2021/09/26 07:57:50;;;;;;;0.40;0.40;;;22.90;48.10;;;26.93;32.16;101364.38;5114974;28;20221;-11
2021/09/26 08:00:17;;;;;;;0.50;0.50;;;22.90;48.20;;;26.92;32.28;101365.34;5114891;28;20063;-11
2021/09/26 08:02:42;;;;;;;0.50;0.50;;;22.90;48.20;;;26.93;32.32;101364.38;5115227;28;20055;-11
2021/09/26 08:05:09;;;;;;;0.47;0.47;;;22.80;48.20;;;26.89;32.17;101359.38;5113479;28;20054;-11
2021/09/26 08:07:36;;;;;;;0.50;0.50;;;22.80;48.40;;;26.91;32.37;101362.78;5095920;28;20060;-11
2021/09/26 08:10:05;;;;;;;0.30;0.30;;;22.80;48.40;;;26.88;32.16;101361.19;5114783;28;20043;-11
2021/09/26 08:12:31;;;;;;;0.50;0.50;;;22.80;48.40;;;26.87;32.41;101358.63;5114663;28;20092;-11
2021/09/26 08:14:57;;;;;;;0.43;0.43;;;22.80;48.40;;;26.88;32.24;101360.31;5114677;28;20423;-11
2021/09/26 08:17:23;;;;;;;0.45;0.45;;;22.80;48.40;;;26.87;32.44;101361.31;5114304;28;20437;-11
2021/09/26 08:19:49;;;;;;;0.50;0.50;;;22.80;48.50;;;26.85;32.17;101361.44;5114579;28;20069;-11
2021/09/26 08:22:16;;;;;;;0.40;0.40;;;22.80;48.50;;;26.82;32.22;101364.38;5114927;28;20056;-11
2021/09/26 08:24:42;;;;;;;0.40;0.40;;;22.70;48.60;;;26.80;32.28;101355.59;5114564;28;20071;-11
2021/09/26 08:27:08;;;;;;;0.50;0.50;;;22.70;48.70;;;26.80;32.22;101359.13;5114828;28;20502;-11
2021/09/26 08:29:35;;;;;;;0.50;0.50;;;22.60;48.70;;;26.79;32.29;101359.22;5114524;28;20044;-11
2021/09/26 08:32:01;;;;;;;1.05;0.60;;;22.60;48.80;;;26.78;32.06;101360.19;5114441;28;20483;-11
2021/09/26 08:34:27;;;;;;;0.55;0.55;;;22.60;48.80;;;26.75;32.26;101361.31;5114416;28;20069;-11
2021/09/26 08:36:53;;;;;;;0.50;0.50;;;22.60;48.70;;;26.74;32.47;101364.97;5114227;28;20487;-11
2021/09/26 08:39:19;;;;;;;0.70;0.70;;;22.60;48.80;;;26.74;32.23;101364.13;5114178;28;20402;-11
2021/09/26 08:41:52;;;;;;;0.40;0.40;;;22.60;48.80;;;26.73;32.39;101362.38;5114258;28;20078;-11
2021/09/26 08:44:25;;;;;;;0.50;0.50;;;22.60;48.80;;;26.71;32.26;101365.19;5114642;28;20082;-11
2021/09/26 08:46:53;;;;;;;0.45;0.45;;;22.60;48.90;;;26.69;32.38;101355.56;5114650;28;20041;-11
2021/09/26 08:49:20;;;;;;;0.40;0.40;;;22.60;48.90;;;26.69;32.39;101361.78;5114044;28;20051;-11
2021/09/26 08:51:51;;;;;;;0.50;0.50;;;22.60;48.90;;;26.67;32.40;101365.56;5110289;28;20048;-11
2021/09/26 08:54:20;;;;;;;;;;;22.60;48.90;;;26.78;32.22;101360.19;5114963;28;20399;-11
2021/09/26 08:56:46;;;;;;;0.40;0.40;;;22.60;48.90;;;26.69;32.28;101367.16;5114021;28;19915;-11
2021/09/26 08:59:13;;;;;;;0.50;0.50;;;22.60;48.80;;;26.64;32.34;101369.34;5113632;28;20047;-11
2021/09/26 09:01:39;;;;;;;0.50;0.50;;;22.60;48.80;;;26.60;32.41;101357.97;5114066;28;20043;-11
2021/09/26 09:04:05;;;;;;;0.50;0.50;;;22.60;48.90;;;26.61;32.51;101358.81;5114127;28;20055;-11
2021/09/26 09:06:44;;;;;;;0.43;0.43;;;22.60;49.00;;;26.59;32.52;101360.78;5114073;28;20059;-11
2021/09/26 09:09:22;;;;;;;0.50;0.50;;;22.50;49.00;;;26.60;32.58;101357.13;5113699;28;20522;-11
2021/09/26 09:12:04;;;;;;;0.60;0.60;;;22.50;49.00;;;26.57;32.54;101346.63;5113918;28;20063;-11
2021/09/26 09:14:56;;;;;;;0.45;0.45;;;22.60;48.90;;;26.57;32.55;101352.00;5113423;28;20135;-10
2021/09/26 09:17:30;;;;;;;0.50;0.50;;;22.60;48.90;;;26.54;32.54;101358.44;5095463;28;20047;-12
2021/09/26 09:20:25;;;;;;;0.50;0.50;;;22.60;48.90;;;26.55;32.40;101348.59;5113574;28;20073;-11
2021/09/26 09:23:11;;;;;;;0.60;0.60;;;22.50;48.90;;;26.52;32.49;101349.66;5113938;28;20051;-11
2021/09/26 09:25:52;;;;;;;0.60;0.60;;;22.50;48.90;;;26.52;32.59;101349.66;5113564;28;20127;-11
2021/09/26 09:28:27;;;;;;;0.52;0.52;;;22.50;48.90;;;26.52;32.78;101346.16;5113458;28;20466;-11
2021/09/26 09:31:03;;;;;;;0.50;0.50;;;22.50;49.10;;;26.51;32.41;101347.09;5113512;28;20063;-11
2021/09/26 09:33:45;;;;;;;0.50;0.50;;;22.50;49.10;;;26.48;32.64;101345.53;5113575;28;20050;-11
2021/09/26 09:36:20;;;;;;;0.50;0.50;;;22.50;49.00;;;26.51;32.72;101358.69;5113771;28;20047;-11
2021/09/26 09:38:54;;;;;;;0.60;0.60;;;22.50;49.10;;;26.50;32.69;101346.25;5113481;28;20072;-11
2021/09/26 09:41:42;;;;;;;0.47;0.47;;;22.60;49.00;;;26.51;32.69;101345.28;5113404;28;20067;-11
2021/09/26 09:44:12;;;;;;;0.50;0.50;;;22.60;49.00;;;26.49;32.53;101341.84;5113074;28;20074;-11
2021/09/26 09:46:48;;;;;;;0.50;0.50;;;22.50;49.00;;;26.51;32.65;101341.75;5113564;28;20051;-11
2021/09/26 09:49:18;;;;;;;0.50;0.50;;;22.50;49.00;;;26.51;32.72;101347.94;5112842;28;20095;-11
2021/09/26 09:51:51;;;;;;;0.45;0.45;;;22.50;49.00;;;26.52;32.62;101349.66;5112879;28;20050;-11
2021/09/26 09:54:38;;;;;;;0.50;0.50;;;22.50;49.00;;;26.50;32.67;101346.25;5113177;28;20055;-11
2021/09/26 09:57:17;;;;;;;0.60;0.60;;;22.50;49.00;;;26.50;32.69;101346.25;5112732;28;20051;-11
2021/09/26 09:59:46;;;;;;;0.43;0.43;;;22.60;49.00;;;26.49;32.65;101349.91;5113064;28;20044;-11
2021/09/26 10:02:14;;;;;;;0.50;0.50;;;22.60;49.00;;;26.51;32.68;101344.41;5113123;28;20127;-11
2021/09/26 10:04:44;;;;;;;0.60;0.60;;;22.60;49.00;;;26.50;32.69;101340.06;5094439;28;20476;-11
2021/09/26 10:07:26;;;;;;;0.50;0.50;;;22.60;48.90;;;26.50;32.71;101343.56;5113082;28;20387;-11
2021/09/26 10:09:53;;;;;;;0.57;0.57;;;22.70;48.90;;;26.51;32.75;101341.75;5113256;28;20055;-11
2021/09/26 10:12:28;;;;;;;0.40;0.40;;;22.60;48.90;;;26.50;32.80;101338.22;5112983;28;20044;-11
2021/09/26 10:14:58;;;;;;;0.47;0.47;;;22.60;48.90;;;26.49;32.40;101332.97;5113271;28;20043;-11
2021/09/26 10:17:25;;;;;;;0.50;0.50;;;22.60;49.00;;;26.49;32.74;101333.81;5112704;28;20095;-11
2021/09/26 10:19:51;;;;;;;0.57;0.40;;;22.60;49.00;;;26.49;32.78;101328.44;5112833;28;20048;-11
2021/09/26 10:22:18;;;;;;;0.60;0.60;;;22.50;49.00;;;26.49;32.76;101323.09;5112868;28;20047;-11